Flight Track Log - Related Links

Times and Time Zones

All times are in EST time to prevent confusion due to time zone crossing. See the CUA5906 flight status page for this flight to view local times or setup timezone preferences in your user account.

Time Position Orientation Groundspeed Altitude Reporting Facility
EST Latitude Longitude Course Direction KTS MPH feet Rate Location/Type
Fri 02:02:00 AM 37.3422 117.5964 340° North  Level Estimated
Fri 02:03:00 AM 37.4235 117.5574 339° North  Level Estimated
Fri 02:04:00 AM 37.5047 117.5184 339° North  Level Estimated
Fri 02:05:00 AM 37.5860 117.4792 339° North  Level Estimated
Fri 02:06:00 AM 37.6672 117.4400 339° North  Level Estimated
Fri 02:07:00 AM 37.7484 117.4007 339° North  Level Estimated
Fri 02:08:00 AM 37.8296 117.3613 339° North  Level Estimated
Fri 02:09:00 AM 37.9108 117.3219 339° North  Level Estimated
Fri 02:09:26 AM 37.6840 116.6170 339° North 380 437 20,700  Level FlightAware ADS-B
Fri 02:10:00 AM 37.9920 117.2823 339° North  Level Estimated
Fri 02:10:08 AM 37.7510 116.5910 343° North 360 414 20,000  Level FlightAware ADS-B
Fri 02:10:37 AM 37.7970 116.5730 343° North 358 412 19,700 -340 Descending FlightAware ADS-B
Fri 02:11:01 AM 37.8380 116.5570 343° North 358 412 19,700  Level FlightAware ADS-B
Fri 02:11:49 AM 37.9120 116.5290 343° North 362 417 19,700  Level FlightAware ADS-B
Fri 02:11:55 AM 37.9240 116.5240 342° North 362 417 19,700  Level FlightAware ADS-B
Fri 02:12:47 AM 37.9950 116.4970 343° North 362 417 19,700 -483 Level FlightAware ADS-B
Fri 02:13:22 AM 38.0630 116.4710 343° North 368 423 19,000 -1,099 Descending FlightAware ADS-B
Fri 02:13:58 AM 38.1230 116.4480 343° North 370 426 18,400 -984 Descending FlightAware ADS-B
Fri 02:14:23 AM 38.1630 116.4330 344° North 368 423 18,000 -973 Descending FlightAware ADS-B
Fri 02:15:12 AM 38.2440 116.4010 343° North 361 415 17,200 -1,000 Descending FlightAware ADS-B
Fri 02:15:47 AM 38.2980 116.3800 343° North 358 412 16,600 -973 Descending FlightAware ADS-B
Fri 02:16:26 AM 38.3610 116.3600 346° North 355 409 16,000 -986 Descending FlightAware ADS-B
Fri 02:17:00 AM 38.4160 116.3470 350° North 350 403 15,400 -1,015 Descending FlightAware ADS-B
Fri 02:17:31 AM 38.4650 116.3360 350° North 351 404 14,900 -529 Descending FlightAware ADS-B
Fri 02:18:08 AM 38.5220 116.3230 350° North 349 402 14,800 -522 Descending FlightAware ADS-B
Fri 02:18:40 AM 38.5770 116.3090 349° North 355 409 14,300 -761 Descending FlightAware ADS-B
Fri 02:19:19 AM 38.6390 116.2950 350° North 351 404 13,900 -417 Descending FlightAware ADS-B
Fri 02:19:52 AM 38.6930 116.2820 349° North 350 403 13,800 -67 Descending FlightAware ADS-B
Fri 02:20:48 AM 38.7800 116.2620 350° North 346 398 13,800  Level FlightAware ADS-B
Fri 02:21:16 AM 38.8250 116.2510 349° North 345 397 13,800 -277 Level FlightAware ADS-B
Fri 02:21:53 AM 38.8840 116.2370 350° North 345 397 13,500 -577 Descending FlightAware ADS-B
Fri 02:23:00 AM 38.9840 116.2130 349° North 297 342 12,800 -412 Descending FlightAware ADS-B
Fri 02:23:35 AM 39.0290 116.2020 349° North 264 304 12,800 -429 Level FlightAware ADS-B
Fri 02:24:10 AM 39.0680 116.2050 North 265 305 12,300 -1,859 Descending FlightAware ADS-B
Fri 02:24:46 AM 39.1180 116.2190 12° North 294 338 10,600 -2,571 Descending FlightAware ADS-B
Fri 02:25:06 AM 39.1440 116.2260 12° North 294 338 9,900 -1,773 Descending FlightAware ADS-B
Fri 02:25:30 AM 39.1750 116.2350 13° North 285 328 9,300 -1,627 Descending FlightAware ADS-B
Fri 02:26:05 AM 39.2200 116.2470 12° North 278 320 8,300 -1,875 Descending FlightAware ADS-B
Fri 02:26:34 AM 39.2560 116.2570 12° North 280 322 7,300 -2,060 Descending FlightAware ADS-B
Fri 02:27:12 AM 39.3060 116.2710 12° North 282 325 6,000 -1,969 Descending FlightAware ADS-B
Fri 02:27:38 AM 39.3350 116.2790 12° North 285 328 5,200 -1,662 Descending FlightAware ADS-B
Fri 02:28:17 AM 39.3890 116.2940 12° North 279 321 4,200 -1,421 Descending FlightAware ADS-B
Fri 02:28:54 AM 39.4340 116.3110 16° North 277 319 3,400 -1,263 Descending FlightAware ADS-B
Fri 02:29:33 AM 39.4810 116.3330 20° North 272 313 2,600 -896 Descending FlightAware ADS-B
Fri 02:30:01 AM 39.5140 116.3480 19° North 259 298 2,400 -490 Descending FlightAware ADS-B
Fri 02:30:22 AM 39.5360 116.3580 19° North 247 284 2,200 -414 Descending FlightAware ADS-B
Fri 02:30:59 AM 39.5750 116.3760 20° North 219 252 2,000 -162 Descending FlightAware ADS-B
Fri 02:31:36 AM 39.6080 116.3910 19° North 196 226 2,000  Level FlightAware ADS-B
Fri 02:32:04 AM 39.6300 116.3970 12° North 182 209 2,000  Level FlightAware ADS-B
Fri 02:32:43 AM 39.6630 116.3950 357° North 167 192 2,000 -385 Level FlightAware ADS-B
Fri 02:33:22 AM 39.6930 116.3930 357° North 159 183 1,500 -857 Descending FlightAware ADS-B
Fri 02:34:07 AM 39.7260 116.3910 357° North 150 173 800 -868 Descending FlightAware ADS-B
Fri 02:34:38 AM 39.7460 116.3890 356° North 148 170 400 -750 Descending FlightAware ADS-B
Fri 02:34:47 AM 39.7520 116.3890 360° North 147 169 300 -171 Descending FlightAware ADS-B
Fri 02:35:13 AM 39.7670 116.3870 354° North 147 169 300  Level FlightAware ADS-B
Fri 02:38:00 AM 39.7794 116.3864 358° North  Level Estimated
Fri 02:39:00 AM 39.7794 116.3864 349° North  Level Estimated
Fri 02:40:00 AM 39.7794 116.3864 349° North  Level Estimated
Fri 02:41:00 AM 39.7794 116.3864 349° North  Level Estimated
Fri 02:42:00 AM 39.7794 116.3864 349° North  Level Estimated
Fri 02:43:00 AM 39.7794 116.3864 349° North  Level Estimated
Fri 02:44:00 AM 39.7794 116.3864 349° North  Level Estimated
Fri 02:45:00 AM 39.7794 116.3864 349° North  Level Estimated

Login

Don't have an account? Register now (free) for customized features, flight alerts, and more!